createdAt,value
2023-04-03T00:00:11.019Z,103414.13
2023-04-03T00:05:17.257Z,103418.00
2023-04-03T00:10:19.042Z,103417.28
2023-04-03T00:15:22.976Z,103417.78
2023-04-03T00:20:27.249Z,103422.44
2023-04-03T00:25:28.916Z,103418.19
2023-04-03T00:30:31.911Z,103429.59
2023-04-03T00:35:39.141Z,103424.75
2023-04-03T00:40:47.750Z,103421.63
2023-04-03T00:45:56.736Z,103427.31
2023-04-03T00:51:01.419Z,103431.13
2023-04-03T00:56:10.850Z,103436.72
2023-04-03T01:01:17.694Z,103435.22
2023-04-03T01:06:33.959Z,103430.00
2023-04-03T01:11:41.515Z,103433.69
2023-04-03T01:16:56.015Z,103432.91
2023-04-03T01:22:08.369Z,103423.47
2023-04-03T01:27:11.386Z,103428.06
2023-04-03T01:32:20.715Z,103425.59
2023-04-03T01:37:22.487Z,103425.00
2023-04-03T01:42:24.295Z,103432.75
2023-04-03T01:47:26.179Z,103430.06
2023-04-03T01:52:32.720Z,103436.34
2023-04-03T01:57:34.517Z,103427.88
2023-04-03T02:02:36.772Z,103436.09
2023-04-03T02:07:40.787Z,103440.53
2023-04-03T02:12:44.753Z,103446.75
2023-04-03T02:17:48.947Z,103444.16
2023-04-03T02:22:53.503Z,103453.94
2023-04-03T02:27:55.209Z,103459.38
2023-04-03T02:32:59.299Z,103461.31
2023-04-03T02:38:02.331Z,103470.00
2023-04-03T02:43:04.132Z,103467.28
2023-04-03T02:48:06.515Z,103469.06
2023-04-03T02:53:13.031Z,103468.38
2023-04-03T02:58:16.952Z,103464.84
2023-04-03T03:03:24.066Z,103460.63
2023-04-03T03:08:25.813Z,103466.75
2023-04-03T03:13:29.734Z,103474.03
2023-04-03T03:18:34.053Z,103479.56
2023-04-03T03:23:36.169Z,103481.44
2023-04-03T03:28:41.387Z,103484.44
2023-04-03T03:33:47.437Z,103477.81
2023-04-03T03:38:51.455Z,103483.31
2023-04-03T03:43:53.310Z,103474.88
2023-04-03T03:49:00.494Z,103496.19
2023-04-03T03:54:02.663Z,103483.31
2023-04-03T03:59:06.904Z,103488.69
2023-04-03T04:04:08.933Z,103487.03
2023-04-03T04:09:13.163Z,103482.28
2023-04-03T04:14:17.896Z,103493.13
2023-04-03T04:19:25.231Z,103494.22
2023-04-03T04:24:30.262Z,103485.66
2023-04-03T04:29:36.777Z,103492.09
2023-04-03T04:34:42.782Z,103491.53
2023-04-03T04:39:48.187Z,103497.88
2023-04-03T04:44:50.370Z,103507.63
2023-04-03T04:49:54.641Z,103499.88
2023-04-03T04:54:56.802Z,103510.53
2023-04-03T05:00:04.045Z,103514.34
2023-04-03T05:05:11.121Z,103522.22
2023-04-03T05:10:15.856Z,103516.72
2023-04-03T05:15:17.969Z,103518.28
2023-04-03T05:20:22.255Z,103525.56
2023-04-03T05:25:27.198Z,103538.19
2023-04-03T05:30:32.049Z,103534.88
2023-04-03T05:35:42.510Z,103543.63
2023-04-03T05:40:48.188Z,103555.75
2023-04-03T05:45:52.572Z,103552.84
2023-04-03T05:50:58.625Z,103557.16
2023-04-03T05:56:01.922Z,103557.59
2023-04-03T06:01:09.988Z,103564.25
2023-04-03T06:06:18.874Z,103563.88
2023-04-03T06:11:25.155Z,103573.00
2023-04-03T06:16:27.053Z,103577.72
2023-04-03T06:21:28.830Z,103583.25
2023-04-03T06:26:32.887Z,103587.84
2023-04-03T06:31:39.842Z,103581.03
2023-04-03T06:36:41.532Z,103588.25
2023-04-03T06:41:47.709Z,103594.66
2023-04-03T06:46:49.586Z,103588.81
2023-04-03T06:51:51.490Z,103593.38
2023-04-03T06:56:53.291Z,103596.34
2023-04-03T07:01:55.281Z,103606.25
2023-04-03T07:06:59.356Z,103610.00
2023-04-03T07:12:03.780Z,103612.03
2023-04-03T07:17:10.343Z,103616.69
2023-04-03T07:22:14.437Z,103614.28
2023-04-03T07:27:16.376Z,103623.50
2023-04-03T07:32:18.628Z,103633.41
2023-04-03T07:37:20.373Z,103636.41
2023-04-03T07:42:24.410Z,103629.66
2023-04-03T07:47:28.361Z,103635.28
2023-04-03T07:52:34.948Z,103636.66
2023-04-03T07:57:38.958Z,103633.38
2023-04-03T08:02:43.736Z,103634.31
2023-04-03T08:07:48.297Z,103620.47
2023-04-03T08:12:52.918Z,103621.72
2023-04-03T08:17:57.337Z,103620.09
2023-04-03T08:22:59.131Z,103623.94
2023-04-03T08:28:00.894Z,103613.81
2023-04-03T08:33:04.015Z,103622.59
2023-04-03T08:38:08.201Z,103621.13
2023-04-03T08:43:12.101Z,103622.44
2023-04-03T08:48:20.655Z,103619.19
2023-04-03T08:53:28.171Z,103622.06
2023-04-03T08:58:51.541Z,103616.91
2023-04-03T09:03:55.980Z,103612.13
2023-04-03T09:09:13.445Z,103618.34
2023-04-03T09:14:24.556Z,103614.88
2023-04-03T09:19:33.292Z,103611.56
2023-04-03T09:24:35.179Z,103605.69
2023-04-03T09:29:44.305Z,103613.72
2023-04-03T09:34:46.642Z,103613.16
2023-04-03T09:39:57.058Z,103611.00
2023-04-03T09:45:00.209Z,103615.88
2023-04-03T09:50:14.281Z,103612.25
2023-04-03T09:55:17.503Z,103608.84
2023-04-03T10:00:33.354Z,103603.75
2023-04-03T10:05:40.767Z,103592.97
2023-04-03T10:10:48.865Z,103593.44
2023-04-03T10:16:03.231Z,103588.03
2023-04-03T10:21:17.433Z,103579.56
2023-04-03T10:26:37.483Z,103578.91
2023-04-03T10:32:24.470Z,103580.53
2023-04-03T10:37:51.118Z,103569.84
2023-04-03T10:43:05.022Z,103569.63
2023-04-03T10:48:20.511Z,103576.38
2023-04-03T10:53:46.342Z,103561.31
2023-04-03T10:58:55.660Z,103564.13
2023-04-03T11:03:59.660Z,103558.63
2023-04-03T11:09:04.734Z,103549.25
2023-04-03T11:14:14.367Z,103549.94
2023-04-03T11:19:16.035Z,103548.34
2023-04-03T11:24:26.362Z,103543.16
2023-04-03T11:29:35.946Z,103535.31
2023-04-03T11:34:42.710Z,103536.31
2023-04-03T11:39:58.442Z,103535.59
2023-04-03T11:45:40.224Z,103514.00
2023-04-03T11:50:47.227Z,103511.97
2023-04-03T11:55:48.893Z,103517.63
2023-04-03T12:01:02.659Z,103503.19
2023-04-03T12:06:07.905Z,103501.78
2023-04-03T12:11:09.693Z,103501.22
2023-04-03T12:16:23.784Z,103493.28
2023-04-03T12:21:28.314Z,103486.09
2023-04-03T12:26:48.751Z,103485.03
2023-04-03T12:31:59.921Z,103469.84
2023-04-03T12:37:08.371Z,103472.56
2023-04-03T12:42:22.402Z,103458.09
2023-04-03T12:47:34.258Z,103460.69
2023-04-03T12:52:44.504Z,103462.94
2023-04-03T12:57:49.061Z,103451.34
2023-04-03T13:02:53.359Z,103451.66
2023-04-03T13:08:07.139Z,103449.66
2023-04-03T13:13:11.949Z,103456.44
2023-04-03T13:18:30.926Z,103442.91
2023-04-03T13:23:35.097Z,103446.31
2023-04-03T13:28:37.162Z,103453.66
2023-04-03T13:33:43.166Z,103437.38
2023-04-03T13:38:49.852Z,103437.16
2023-04-03T13:44:00.451Z,103440.75
2023-04-03T13:49:22.778Z,103430.50
2023-04-03T13:54:42.092Z,103433.28
2023-04-03T13:59:44.454Z,103429.16
2023-04-03T14:04:46.307Z,103430.50
2023-04-03T14:09:48.425Z,103432.25
2023-04-03T14:14:55.051Z,103431.06
2023-04-03T14:19:57.887Z,103420.66
2023-04-03T14:25:04.558Z,103413.81
2023-04-03T14:30:09.790Z,103413.75
2023-04-03T14:35:11.649Z,103413.91
2023-04-03T14:40:20.891Z,103403.06
2023-04-03T14:45:25.052Z,103412.03
2023-04-03T14:50:28.068Z,103397.16
2023-04-03T14:55:30.483Z,103390.63
2023-04-03T15:00:32.956Z,103380.91
2023-04-03T15:05:36.237Z,103376.94
2023-04-03T15:10:38.223Z,103380.78
2023-04-03T15:15:43.001Z,103368.13
2023-04-03T15:20:44.890Z,103353.56
2023-04-03T15:25:48.941Z,103354.66
2023-04-03T15:30:51.412Z,103352.56
2023-04-03T15:35:55.810Z,103343.06
2023-04-03T15:41:00.188Z,103338.03
2023-04-03T15:46:02.537Z,103332.81
2023-04-03T15:51:04.548Z,103329.00
2023-04-03T15:56:06.348Z,103339.06
2023-04-03T16:01:10.923Z,103329.59
2023-04-03T16:06:14.275Z,103325.69
2023-04-03T16:11:20.833Z,103315.66
2023-04-03T16:16:23.334Z,103323.63
2023-04-03T16:21:26.377Z,103318.00
2023-04-03T16:26:28.900Z,103320.13
2023-04-03T16:31:37.300Z,103317.81
2023-04-03T16:36:41.420Z,103321.13
2023-04-03T16:41:46.255Z,103323.69
2023-04-03T16:46:48.499Z,103311.91
2023-04-03T16:51:54.625Z,103319.38
2023-04-03T16:56:56.450Z,103308.63
2023-04-03T17:01:58.322Z,103313.78
2023-04-03T17:07:06.943Z,103311.41
2023-04-03T17:12:08.812Z,103315.44
2023-04-03T17:17:10.945Z,103318.50
2023-04-03T17:22:12.807Z,103316.38
2023-04-03T17:27:16.930Z,103317.56
2023-04-03T17:32:21.378Z,103328.06
2023-04-03T17:37:23.196Z,103317.34
2023-04-03T17:42:27.031Z,103325.78
2023-04-03T17:47:31.172Z,103332.81
2023-04-03T17:52:33.152Z,103330.38
2023-04-03T17:57:34.896Z,103323.44
2023-04-03T18:02:37.058Z,103328.09
2023-04-03T18:07:39.442Z,103319.56
2023-04-03T18:12:45.066Z,103315.66
2023-04-03T18:17:51.415Z,103306.25
2023-04-03T18:22:53.300Z,103310.09
2023-04-03T18:27:55.242Z,103313.78
2023-04-03T18:32:59.641Z,103306.53
2023-04-03T18:38:04.787Z,103307.56
2023-04-03T18:43:08.826Z,103313.06
2023-04-03T18:48:10.960Z,103314.75
2023-04-03T18:53:12.740Z,103309.81
2023-04-03T18:58:14.672Z,103310.28
2023-04-03T19:03:18.928Z,103311.03
2023-04-03T19:08:20.832Z,103317.31
2023-04-03T19:13:22.702Z,103310.03
2023-04-03T19:18:26.217Z,103308.31
2023-04-03T19:23:28.262Z,103313.72
2023-04-03T19:28:31.043Z,103304.63
2023-04-03T19:33:36.008Z,103310.03
2023-04-03T19:38:40.132Z,103298.63
2023-04-03T19:43:42.498Z,103310.72
2023-04-03T19:48:47.346Z,103304.16
2023-04-03T19:53:54.035Z,103300.84
2023-04-03T19:58:56.797Z,103303.31
2023-04-03T20:03:59.144Z,103294.69
2023-04-03T20:09:01.679Z,103280.41
2023-04-03T20:14:04.004Z,103281.69
2023-04-03T20:19:07.950Z,103286.53
2023-04-03T20:24:12.066Z,103293.38
2023-04-03T20:29:16.465Z,103290.41
2023-04-03T20:34:18.336Z,103302.50
2023-04-03T20:39:24.686Z,103288.16
2023-04-03T20:44:28.930Z,103283.97
2023-04-03T20:49:31.261Z,103274.75
2023-04-03T20:54:33.793Z,103279.06
2023-04-03T20:59:36.944Z,103284.66
2023-04-03T21:04:52.933Z,103279.97
2023-04-03T21:10:32.498Z,103289.03
2023-04-03T21:15:46.517Z,103283.47
2023-04-03T21:20:51.320Z,103291.97
2023-04-03T21:25:53.001Z,103289.72
2023-04-03T21:30:54.755Z,103284.09
2023-04-03T21:35:59.967Z,103291.44
2023-04-03T21:41:04.493Z,103289.28
2023-04-03T21:46:08.792Z,103294.84
2023-04-03T21:51:12.790Z,103306.88
2023-04-03T21:56:14.595Z,103304.47
2023-04-03T22:01:19.523Z,103302.41
2023-04-03T22:06:23.894Z,103301.03
2023-04-03T22:11:27.166Z,103316.47
2023-04-03T22:16:29.032Z,103309.84
2023-04-03T22:21:33.829Z,103316.59
2023-04-03T22:26:40.716Z,103316.09
2023-04-03T22:31:46.771Z,103319.22
2023-04-03T22:36:51.139Z,103317.91
2023-04-03T22:41:57.325Z,103317.19
2023-04-03T22:47:02.335Z,103303.41
2023-04-03T22:52:04.183Z,103298.72
2023-04-03T22:57:09.596Z,103302.66
2023-04-03T23:02:15.683Z,103295.84
2023-04-03T23:07:22.744Z,103292.56
2023-04-03T23:12:24.425Z,103287.56
2023-04-03T23:17:26.174Z,103295.81
2023-04-03T23:22:27.884Z,103298.03
2023-04-03T23:27:29.579Z,103304.41
2023-04-03T23:32:31.364Z,103294.09
2023-04-03T23:37:37.802Z,103295.56
2023-04-03T23:42:42.951Z,103291.72
2023-04-03T23:47:49.435Z,103293.91
2023-04-03T23:52:53.323Z,103297.13
2023-04-03T23:57:57.422Z,103286.16
